sensor_id;sensor_type;location;lat;lon;timestamp;temperature;humidity
65146;DHT22;51730;56.950;24.126;2023-02-01T00:00:25;2.30;99.90
65146;DHT22;51730;56.950;24.126;2023-02-01T00:02:52;2.30;99.90
65146;DHT22;51730;56.950;24.126;2023-02-01T00:05:19;2.30;99.90
65146;DHT22;51730;56.950;24.126;2023-02-01T00:07:47;2.30;99.90
65146;DHT22;51730;56.950;24.126;2023-02-01T00:10:15;2.20;99.90
65146;DHT22;51730;56.950;24.126;2023-02-01T00:12:43;2.30;99.90
65146;DHT22;51730;56.950;24.126;2023-02-01T00:15:10;2.30;99.90
65146;DHT22;51730;56.950;24.126;2023-02-01T00:17:37;2.30;99.90
65146;DHT22;51730;56.950;24.126;2023-02-01T00:20:04;2.20;99.90
65146;DHT22;51730;56.950;24.126;2023-02-01T00:22:31;2.30;99.90
65146;DHT22;51730;56.950;24.126;2023-02-01T00:24:58;2.30;99.90
65146;DHT22;51730;56.950;24.126;2023-02-01T00:27:25;2.30;99.90
65146;DHT22;51730;56.950;24.126;2023-02-01T00:29:54;2.40;99.90
65146;DHT22;51730;56.950;24.126;2023-02-01T00:32:22;2.40;99.90
65146;DHT22;51730;56.950;24.126;2023-02-01T00:34:48;2.30;99.90
65146;DHT22;51730;56.950;24.126;2023-02-01T00:37:15;2.30;99.90
65146;DHT22;51730;56.950;24.126;2023-02-01T00:39:42;2.30;99.90
65146;DHT22;51730;56.950;24.126;2023-02-01T00:42:09;2.40;99.90
65146;DHT22;51730;56.950;24.126;2023-02-01T00:44:36;2.40;99.90
65146;DHT22;51730;56.950;24.126;2023-02-01T00:47:03;2.40;99.90
65146;DHT22;51730;56.950;24.126;2023-02-01T00:49:30;2.40;99.90
65146;DHT22;51730;56.950;24.126;2023-02-01T00:51:57;2.40;99.90
65146;DHT22;51730;56.950;24.126;2023-02-01T00:54:24;2.40;99.90
65146;DHT22;51730;56.950;24.126;2023-02-01T00:56:51;2.40;99.90
65146;DHT22;51730;56.950;24.126;2023-02-01T00:59:18;2.30;99.90
65146;DHT22;51730;56.950;24.126;2023-02-01T01:01:45;2.40;99.90
65146;DHT22;51730;56.950;24.126;2023-02-01T01:04:12;2.40;99.90
65146;DHT22;51730;56.950;24.126;2023-02-01T01:06:38;2.30;99.90
65146;DHT22;51730;56.950;24.126;2023-02-01T01:09:07;2.30;99.90
65146;DHT22;51730;56.950;24.126;2023-02-01T01:11:36;2.30;99.90
65146;DHT22;51730;56.950;24.126;2023-02-01T01:14:05;2.40;99.90
65146;DHT22;51730;56.950;24.126;2023-02-01T01:16:33;2.30;99.90
65146;DHT22;51730;56.950;24.126;2023-02-01T01:19:00;2.40;99.90
65146;DHT22;51730;56.950;24.126;2023-02-01T01:21:28;2.30;99.90
65146;DHT22;51730;56.950;24.126;2023-02-01T01:23:55;2.40;99.90
65146;DHT22;51730;56.950;24.126;2023-02-01T01:26:24;2.40;99.90
65146;DHT22;51730;56.950;24.126;2023-02-01T01:28:54;2.40;99.90
65146;DHT22;51730;56.950;24.126;2023-02-01T01:31:20;2.40;99.90
65146;DHT22;51730;56.950;24.126;2023-02-01T01:33:50;2.30;99.90
65146;DHT22;51730;56.950;24.126;2023-02-01T01:36:18;2.30;99.90
65146;DHT22;51730;56.950;24.126;2023-02-01T01:38:45;2.30;99.90
65146;DHT22;51730;56.950;24.126;2023-02-01T01:41:19;2.30;99.90
65146;DHT22;51730;56.950;24.126;2023-02-01T01:43:56;2.30;99.90
65146;DHT22;51730;56.950;24.126;2023-02-01T01:46:32;2.40;99.90
65146;DHT22;51730;56.950;24.126;2023-02-01T01:49:21;2.40;99.90
65146;DHT22;51730;56.950;24.126;2023-02-01T01:51:56;2.40;99.90
65146;DHT22;51730;56.950;24.126;2023-02-01T01:54:34;2.40;99.90
65146;DHT22;51730;56.950;24.126;2023-02-01T01:57:10;2.40;99.90
65146;DHT22;51730;56.950;24.126;2023-02-01T01:59:40;2.40;99.90
65146;DHT22;51730;56.950;24.126;2023-02-01T02:02:08;2.40;99.90
65146;DHT22;51730;56.950;24.126;2023-02-01T02:04:36;2.40;99.90
65146;DHT22;51730;56.950;24.126;2023-02-01T02:07:17;2.40;99.90
65146;DHT22;51730;56.950;24.126;2023-02-01T02:09:46;2.40;99.90
65146;DHT22;51730;56.950;24.126;2023-02-01T02:12:26;2.30;99.90
65146;DHT22;51730;56.950;24.126;2023-02-01T02:14:53;2.30;99.90
65146;DHT22;51730;56.950;24.126;2023-02-01T02:17:30;2.30;99.90
65146;DHT22;51730;56.950;24.126;2023-02-01T02:29:28;2.40;99.90
65146;DHT22;51730;56.950;24.126;2023-02-01T02:43:16;2.30;99.90
65146;DHT22;51730;56.950;24.126;2023-02-01T02:46:12;2.30;99.90
65146;DHT22;51730;56.950;24.126;2023-02-01T02:49:11;2.30;99.90
65146;DHT22;51730;56.950;24.126;2023-02-01T02:52:12;2.40;99.90
65146;DHT22;51730;56.950;24.126;2023-02-01T02:54:58;2.40;99.90
65146;DHT22;51730;56.950;24.126;2023-02-01T02:57:36;2.30;99.90
65146;DHT22;51730;56.950;24.126;2023-02-01T03:00:25;2.20;99.90
65146;DHT22;51730;56.950;24.126;2023-02-01T03:03:13;2.20;99.90
65146;DHT22;51730;56.950;24.126;2023-02-01T03:05:59;2.20;99.90
65146;DHT22;51730;56.950;24.126;2023-02-01T03:08:28;2.20;99.90
65146;DHT22;51730;56.950;24.126;2023-02-01T03:11:00;2.30;99.90
65146;DHT22;51730;56.950;24.126;2023-02-01T03:22:08;2.10;99.90
65146;DHT22;51730;56.950;24.126;2023-02-01T03:24:42;2.20;99.90
65146;DHT22;51730;56.950;24.126;2023-02-01T03:27:13;2.20;99.90
65146;DHT22;51730;56.950;24.126;2023-02-01T03:29:49;2.20;99.90
65146;DHT22;51730;56.950;24.126;2023-02-01T03:32:17;2.20;99.90
65146;DHT22;51730;56.950;24.126;2023-02-01T03:34:45;2.20;99.90
65146;DHT22;51730;56.950;24.126;2023-02-01T03:37:24;2.30;99.90
65146;DHT22;51730;56.950;24.126;2023-02-01T03:40:00;2.30;99.90
65146;DHT22;51730;56.950;24.126;2023-02-01T03:42:35;2.30;99.90
65146;DHT22;51730;56.950;24.126;2023-02-01T03:45:12;2.30;99.90
65146;DHT22;51730;56.950;24.126;2023-02-01T03:47:43;2.30;99.90
65146;DHT22;51730;56.950;24.126;2023-02-01T03:50:15;2.30;99.90
65146;DHT22;51730;56.950;24.126;2023-02-01T03:53:08;2.30;99.90
65146;DHT22;51730;56.950;24.126;2023-02-01T03:55:37;2.30;99.90
65146;DHT22;51730;56.950;24.126;2023-02-01T03:58:14;2.40;99.90
65146;DHT22;51730;56.950;24.126;2023-02-01T04:00:56;2.30;99.90
65146;DHT22;51730;56.950;24.126;2023-02-01T04:03:24;2.30;99.90
65146;DHT22;51730;56.950;24.126;2023-02-01T04:05:52;2.30;99.90
65146;DHT22;51730;56.950;24.126;2023-02-01T04:08:20;2.30;99.90
65146;DHT22;51730;56.950;24.126;2023-02-01T04:10:47;2.30;99.90
65146;DHT22;51730;56.950;24.126;2023-02-01T04:13:14;2.40;99.90
65146;DHT22;51730;56.950;24.126;2023-02-01T04:15:41;2.40;99.90
65146;DHT22;51730;56.950;24.126;2023-02-01T04:18:09;2.50;99.90
65146;DHT22;51730;56.950;24.126;2023-02-01T04:20:36;2.50;99.90
65146;DHT22;51730;56.950;24.126;2023-02-01T04:23:02;2.40;99.90
65146;DHT22;51730;56.950;24.126;2023-02-01T04:25:30;2.30;99.90
65146;DHT22;51730;56.950;24.126;2023-02-01T04:27:57;2.40;99.90
65146;DHT22;51730;56.950;24.126;2023-02-01T04:30:23;2.30;99.90
65146;DHT22;51730;56.950;24.126;2023-02-01T04:32:51;2.40;99.90
65146;DHT22;51730;56.950;24.126;2023-02-01T04:35:18;2.40;99.90
65146;DHT22;51730;56.950;24.126;2023-02-01T04:37:44;2.40;99.90
65146;DHT22;51730;56.950;24.126;2023-02-01T04:40:12;2.40;99.90
65146;DHT22;51730;56.950;24.126;2023-02-01T04:42:39;2.40;99.90
65146;DHT22;51730;56.950;24.126;2023-02-01T04:45:06;2.40;99.90
65146;DHT22;51730;56.950;24.126;2023-02-01T04:47:33;2.40;99.90
65146;DHT22;51730;56.950;24.126;2023-02-01T04:50:00;2.40;99.90
65146;DHT22;51730;56.950;24.126;2023-02-01T04:52:27;2.30;99.90
65146;DHT22;51730;56.950;24.126;2023-02-01T04:54:54;2.40;99.90
65146;DHT22;51730;56.950;24.126;2023-02-01T04:57:25;2.40;99.90
65146;DHT22;51730;56.950;24.126;2023-02-01T04:59:52;2.40;99.90
65146;DHT22;51730;56.950;24.126;2023-02-01T05:02:19;2.40;99.90
65146;DHT22;51730;56.950;24.126;2023-02-01T05:04:46;2.40;99.90
65146;DHT22;51730;56.950;24.126;2023-02-01T05:07:13;2.40;99.90
65146;DHT22;51730;56.950;24.126;2023-02-01T05:09:39;2.40;99.90
65146;DHT22;51730;56.950;24.126;2023-02-01T05:12:07;2.30;99.90
65146;DHT22;51730;56.950;24.126;2023-02-01T05:14:53;2.40;99.90
65146;DHT22;51730;56.950;24.126;2023-02-01T05:17:19;2.30;99.90
65146;DHT22;51730;56.950;24.126;2023-02-01T05:19:46;2.30;99.90
65146;DHT22;51730;56.950;24.126;2023-02-01T05:22:15;2.30;99.90
65146;DHT22;51730;56.950;24.126;2023-02-01T05:24:41;2.20;99.90
65146;DHT22;51730;56.950;24.126;2023-02-01T05:27:08;2.30;99.90
65146;DHT22;51730;56.950;24.126;2023-02-01T05:29:35;2.30;99.90
65146;DHT22;51730;56.950;24.126;2023-02-01T05:32:02;2.40;99.90
65146;DHT22;51730;56.950;24.126;2023-02-01T05:34:47;2.40;99.90
65146;DHT22;51730;56.950;24.126;2023-02-01T05:37:14;2.40;99.90
65146;DHT22;51730;56.950;24.126;2023-02-01T05:39:41;2.30;99.90
65146;DHT22;51730;56.950;24.126;2023-02-01T05:42:08;2.40;99.90
65146;DHT22;51730;56.950;24.126;2023-02-01T05:44:34;2.40;99.90
65146;DHT22;51730;56.950;24.126;2023-02-01T05:47:01;2.40;99.90
65146;DHT22;51730;56.950;24.126;2023-02-01T05:49:28;2.50;99.90
65146;DHT22;51730;56.950;24.126;2023-02-01T05:51:55;2.30;99.90
65146;DHT22;51730;56.950;24.126;2023-02-01T05:54:25;2.40;99.90
65146;DHT22;51730;56.950;24.126;2023-02-01T05:56:52;2.40;99.90
65146;DHT22;51730;56.950;24.126;2023-02-01T05:59:19;2.50;99.90
65146;DHT22;51730;56.950;24.126;2023-02-01T06:01:46;2.50;99.90
65146;DHT22;51730;56.950;24.126;2023-02-01T06:04:13;2.50;99.90
65146;DHT22;51730;56.950;24.126;2023-02-01T06:06:40;2.40;99.90
65146;DHT22;51730;56.950;24.126;2023-02-01T06:09:07;2.40;99.90
65146;DHT22;51730;56.950;24.126;2023-02-01T06:11:34;2.40;99.90
65146;DHT22;51730;56.950;24.126;2023-02-01T06:14:01;2.40;99.90
65146;DHT22;51730;56.950;24.126;2023-02-01T06:16:28;2.40;99.90
65146;DHT22;51730;56.950;24.126;2023-02-01T06:18:55;2.30;99.90
65146;DHT22;51730;56.950;24.126;2023-02-01T06:21:21;2.50;99.90
65146;DHT22;51730;56.950;24.126;2023-02-01T06:23:52;2.40;99.90
65146;DHT22;51730;56.950;24.126;2023-02-01T06:26:20;2.40;99.90
65146;DHT22;51730;56.950;24.126;2023-02-01T06:28:47;2.40;99.90
65146;DHT22;51730;56.950;24.126;2023-02-01T06:31:14;2.40;99.90
65146;DHT22;51730;56.950;24.126;2023-02-01T06:33:41;2.30;99.90
65146;DHT22;51730;56.950;24.126;2023-02-01T06:36:10;2.30;99.90
65146;DHT22;51730;56.950;24.126;2023-02-01T06:38:38;2.30;99.90
65146;DHT22;51730;56.950;24.126;2023-02-01T06:41:06;2.40;99.90
65146;DHT22;51730;56.950;24.126;2023-02-01T06:43:33;2.40;99.90
65146;DHT22;51730;56.950;24.126;2023-02-01T06:46:02;2.40;99.90
65146;DHT22;51730;56.950;24.126;2023-02-01T06:48:29;2.40;99.90
65146;DHT22;51730;56.950;24.126;2023-02-01T06:50:56;2.50;99.90
65146;DHT22;51730;56.950;24.126;2023-02-01T06:53:23;2.60;99.90
65146;DHT22;51730;56.950;24.126;2023-02-01T06:55:59;2.60;99.90
65146;DHT22;51730;56.950;24.126;2023-02-01T06:58:31;2.40;99.90
65146;DHT22;51730;56.950;24.126;2023-02-01T07:01:04;2.50;99.90
65146;DHT22;51730;56.950;24.126;2023-02-01T07:03:31;2.50;99.90
65146;DHT22;51730;56.950;24.126;2023-02-01T07:05:58;2.50;99.90
65146;DHT22;51730;56.950;24.126;2023-02-01T07:08:27;2.50;99.90
65146;DHT22;51730;56.950;24.126;2023-02-01T07:10:54;2.60;99.90
65146;DHT22;51730;56.950;24.126;2023-02-01T07:13:21;2.50;99.90
65146;DHT22;51730;56.950;24.126;2023-02-01T07:15:48;2.50;99.90
65146;DHT22;51730;56.950;24.126;2023-02-01T07:18:15;2.50;99.90
65146;DHT22;51730;56.950;24.126;2023-02-01T07:20:42;2.40;99.90
65146;DHT22;51730;56.950;24.126;2023-02-01T07:23:10;2.50;99.90
65146;DHT22;51730;56.950;24.126;2023-02-01T07:25:37;2.60;99.90
65146;DHT22;51730;56.950;24.126;2023-02-01T07:28:04;2.50;99.90
65146;DHT22;51730;56.950;24.126;2023-02-01T07:30:31;2.60;99.90
65146;DHT22;51730;56.950;24.126;2023-02-01T07:32:58;2.50;99.90
65146;DHT22;51730;56.950;24.126;2023-02-01T07:35:29;2.50;99.90
65146;DHT22;51730;56.950;24.126;2023-02-01T07:37:59;2.50;99.90
65146;DHT22;51730;56.950;24.126;2023-02-01T07:40:26;2.60;99.90
65146;DHT22;51730;56.950;24.126;2023-02-01T07:42:55;2.70;99.90
65146;DHT22;51730;56.950;24.126;2023-02-01T07:45:23;2.70;99.90
65146;DHT22;51730;56.950;24.126;2023-02-01T07:47:52;2.50;99.90
65146;DHT22;51730;56.950;24.126;2023-02-01T07:50:20;2.60;99.90
65146;DHT22;51730;56.950;24.126;2023-02-01T07:52:47;2.60;99.90
65146;DHT22;51730;56.950;24.126;2023-02-01T07:55:14;2.60;99.90
65146;DHT22;51730;56.950;24.126;2023-02-01T07:57:41;2.60;99.90
65146;DHT22;51730;56.950;24.126;2023-02-01T08:00:09;2.70;99.90
65146;DHT22;51730;56.950;24.126;2023-02-01T08:02:57;2.80;99.90
65146;DHT22;51730;56.950;24.126;2023-02-01T08:05:24;2.70;99.90
65146;DHT22;51730;56.950;24.126;2023-02-01T08:07:51;2.80;99.90
65146;DHT22;51730;56.950;24.126;2023-02-01T08:10:18;2.70;99.90
65146;DHT22;51730;56.950;24.126;2023-02-01T08:12:45;2.70;99.90
65146;DHT22;51730;56.950;24.126;2023-02-01T08:15:18;2.80;99.90
65146;DHT22;51730;56.950;24.126;2023-02-01T08:17:48;2.80;99.90
65146;DHT22;51730;56.950;24.126;2023-02-01T08:20:17;2.90;99.90
65146;DHT22;51730;56.950;24.126;2023-02-01T08:22:44;2.90;99.90
65146;DHT22;51730;56.950;24.126;2023-02-01T08:25:11;3.00;99.90
65146;DHT22;51730;56.950;24.126;2023-02-01T08:27:38;2.90;99.90
65146;DHT22;51730;56.950;24.126;2023-02-01T08:30:05;3.00;99.90
65146;DHT22;51730;56.950;24.126;2023-02-01T08:32:34;2.90;99.90
65146;DHT22;51730;56.950;24.126;2023-02-01T08:35:06;2.90;99.90
65146;DHT22;51730;56.950;24.126;2023-02-01T08:37:33;2.90;99.90
65146;DHT22;51730;56.950;24.126;2023-02-01T08:40:00;3.00;99.90
65146;DHT22;51730;56.950;24.126;2023-02-01T08:42:27;3.10;99.90
65146;DHT22;51730;56.950;24.126;2023-02-01T08:45:12;2.90;99.90
65146;DHT22;51730;56.950;24.126;2023-02-01T08:47:40;2.90;99.90
65146;DHT22;51730;56.950;24.126;2023-02-01T08:50:07;3.00;99.90
65146;DHT22;51730;56.950;24.126;2023-02-01T08:52:35;2.90;99.90
65146;DHT22;51730;56.950;24.126;2023-02-01T08:55:04;3.00;99.90
65146;DHT22;51730;56.950;24.126;2023-02-01T08:57:33;3.00;99.90
65146;DHT22;51730;56.950;24.126;2023-02-01T09:00:00;2.90;99.90
65146;DHT22;51730;56.950;24.126;2023-02-01T09:02:27;2.90;99.90
65146;DHT22;51730;56.950;24.126;2023-02-01T09:04:56;3.00;99.90
65146;DHT22;51730;56.950;24.126;2023-02-01T09:07:26;3.10;99.90
65146;DHT22;51730;56.950;24.126;2023-02-01T09:09:52;3.00;99.90
65146;DHT22;51730;56.950;24.126;2023-02-01T09:12:21;3.10;99.90
65146;DHT22;51730;56.950;24.126;2023-02-01T09:14:48;3.00;99.90
65146;DHT22;51730;56.950;24.126;2023-02-01T09:17:15;3.20;99.90
65146;DHT22;51730;56.950;24.126;2023-02-01T09:19:42;3.10;99.90
65146;DHT22;51730;56.950;24.126;2023-02-01T09:22:09;3.10;99.90
65146;DHT22;51730;56.950;24.126;2023-02-01T09:24:36;3.10;99.90
65146;DHT22;51730;56.950;24.126;2023-02-01T09:27:03;3.00;99.90
65146;DHT22;51730;56.950;24.126;2023-02-01T09:29:30;3.10;99.90
65146;DHT22;51730;56.950;24.126;2023-02-01T09:31:57;3.10;99.90
65146;DHT22;51730;56.950;24.126;2023-02-01T09:34:30;3.00;99.90
65146;DHT22;51730;56.950;24.126;2023-02-01T09:36:57;3.10;99.90
65146;DHT22;51730;56.950;24.126;2023-02-01T09:39:24;3.00;99.90
65146;DHT22;51730;56.950;24.126;2023-02-01T09:45:03;3.10;99.90
65146;DHT22;51730;56.950;24.126;2023-02-01T09:47:35;3.00;99.90
65146;DHT22;51730;56.950;24.126;2023-02-01T09:50:14;3.10;99.90
65146;DHT22;51730;56.950;24.126;2023-02-01T09:52:54;3.10;99.90
65146;DHT22;51730;56.950;24.126;2023-02-01T09:55:45;3.10;99.90
65146;DHT22;51730;56.950;24.126;2023-02-01T10:00:52;3.20;99.90
65146;DHT22;51730;56.950;24.126;2023-02-01T10:03:20;3.20;99.90
65146;DHT22;51730;56.950;24.126;2023-02-01T10:11:45;3.20;99.90
65146;DHT22;51730;56.950;24.126;2023-02-01T10:23:11;3.30;99.90
65146;DHT22;51730;56.950;24.126;2023-02-01T10:28:38;3.30;99.90
65146;DHT22;51730;56.950;24.126;2023-02-01T10:31:08;3.30;99.90
65146;DHT22;51730;56.950;24.126;2023-02-01T10:33:50;3.30;99.90
65146;DHT22;51730;56.950;24.126;2023-02-01T10:36:40;3.30;99.90
65146;DHT22;51730;56.950;24.126;2023-02-01T10:39:12;3.30;99.90
65146;DHT22;51730;56.950;24.126;2023-02-01T10:41:41;3.30;99.90
65146;DHT22;51730;56.950;24.126;2023-02-01T10:44:18;3.30;99.90
65146;DHT22;51730;56.950;24.126;2023-02-01T10:46:46;3.40;99.90
65146;DHT22;51730;56.950;24.126;2023-02-01T10:51:58;3.40;99.90
65146;DHT22;51730;56.950;24.126;2023-02-01T10:54:38;3.30;99.90
65146;DHT22;51730;56.950;24.126;2023-02-01T10:57:22;3.40;99.90
65146;DHT22;51730;56.950;24.126;2023-02-01T10:59:52;3.40;99.90
65146;DHT22;51730;56.950;24.126;2023-02-01T11:02:29;3.40;99.90
65146;DHT22;51730;56.950;24.126;2023-02-01T11:05:16;3.40;99.90
65146;DHT22;51730;56.950;24.126;2023-02-01T11:07:55;3.40;99.90
65146;DHT22;51730;56.950;24.126;2023-02-01T11:10:40;3.50;99.90
65146;DHT22;51730;56.950;24.126;2023-02-01T11:13:14;3.40;99.90
65146;DHT22;51730;56.950;24.126;2023-02-01T11:15:47;3.50;99.90
65146;DHT22;51730;56.950;24.126;2023-02-01T11:18:28;3.50;99.90
65146;DHT22;51730;56.950;24.126;2023-02-01T11:20:56;3.50;99.90
65146;DHT22;51730;56.950;24.126;2023-02-01T11:23:25;3.50;99.90
65146;DHT22;51730;56.950;24.126;2023-02-01T11:25:59;3.50;99.90
65146;DHT22;51730;56.950;24.126;2023-02-01T11:28:33;3.50;99.90
65146;DHT22;51730;56.950;24.126;2023-02-01T11:31:03;3.40;99.90
65146;DHT22;51730;56.950;24.126;2023-02-01T11:33:33;3.60;99.90
65146;DHT22;51730;56.950;24.126;2023-02-01T11:36:10;3.50;99.90
65146;DHT22;51730;56.950;24.126;2023-02-01T11:38:37;3.50;99.90
65146;DHT22;51730;56.950;24.126;2023-02-01T11:43:50;3.60;99.90
65146;DHT22;51730;56.950;24.126;2023-02-01T11:46:19;3.60;99.90
65146;DHT22;51730;56.950;24.126;2023-02-01T11:48:53;3.60;99.90
65146;DHT22;51730;56.950;24.126;2023-02-01T11:51:44;3.60;99.90
65146;DHT22;51730;56.950;24.126;2023-02-01T11:57:43;3.60;99.90
65146;DHT22;51730;56.950;24.126;2023-02-01T12:00:44;3.60;99.90
65146;DHT22;51730;56.950;24.126;2023-02-01T12:03:39;3.70;99.90
65146;DHT22;51730;56.950;24.126;2023-02-01T12:09:07;3.80;99.90
65146;DHT22;51730;56.950;24.126;2023-02-01T12:11:45;3.80;99.90
65146;DHT22;51730;56.950;24.126;2023-02-01T12:31:13;3.80;99.90
65146;DHT22;51730;56.950;24.126;2023-02-01T12:39:26;3.60;99.90
65146;DHT22;51730;56.950;24.126;2023-02-01T12:44:50;3.70;99.90
65146;DHT22;51730;56.950;24.126;2023-02-01T12:47:29;3.80;99.90
65146;DHT22;51730;56.950;24.126;2023-02-01T12:50:01;3.80;99.90
65146;DHT22;51730;56.950;24.126;2023-02-01T12:52:49;3.80;99.90
65146;DHT22;51730;56.950;24.126;2023-02-01T12:55:41;3.80;99.90
65146;DHT22;51730;56.950;24.126;2023-02-01T12:58:12;3.80;99.90
65146;DHT22;51730;56.950;24.126;2023-02-01T13:00:44;3.80;99.90
65146;DHT22;51730;56.950;24.126;2023-02-01T13:06:24;3.90;99.90
65146;DHT22;51730;56.950;24.126;2023-02-01T13:11:41;4.00;99.90
65146;DHT22;51730;56.950;24.126;2023-02-01T13:14:29;4.00;99.90
65146;DHT22;51730;56.950;24.126;2023-02-01T13:17:15;4.00;99.90
65146;DHT22;51730;56.950;24.126;2023-02-01T13:22:19;3.90;99.90
65146;DHT22;51730;56.950;24.126;2023-02-01T13:27:19;3.90;99.90
65146;DHT22;51730;56.950;24.126;2023-02-01T13:30:22;3.90;99.90
65146;DHT22;51730;56.950;24.126;2023-02-01T13:43:34;3.90;99.90
65146;DHT22;51730;56.950;24.126;2023-02-01T13:46:09;3.80;99.90
65146;DHT22;51730;56.950;24.126;2023-02-01T13:48:48;3.80;99.90
65146;DHT22;51730;56.950;24.126;2023-02-01T13:51:28;3.90;99.90
65146;DHT22;51730;56.950;24.126;2023-02-01T13:53:59;3.90;99.90
65146;DHT22;51730;56.950;24.126;2023-02-01T13:56:27;3.90;99.90
65146;DHT22;51730;56.950;24.126;2023-02-01T13:58:54;3.80;99.90
65146;DHT22;51730;56.950;24.126;2023-02-01T14:11:50;4.00;99.90
65146;DHT22;51730;56.950;24.126;2023-02-01T14:19:35;4.00;99.90
65146;DHT22;51730;56.950;24.126;2023-02-01T14:22:33;4.00;99.90
65146;DHT22;51730;56.950;24.126;2023-02-01T14:25:00;4.00;99.90
65146;DHT22;51730;56.950;24.126;2023-02-01T14:27:30;4.00;99.90
65146;DHT22;51730;56.950;24.126;2023-02-01T14:30:06;4.00;99.90
65146;DHT22;51730;56.950;24.126;2023-02-01T14:32:37;4.00;99.90
65146;DHT22;51730;56.950;24.126;2023-02-01T14:35:19;4.00;99.90
65146;DHT22;51730;56.950;24.126;2023-02-01T14:37:58;3.90;99.90
65146;DHT22;51730;56.950;24.126;2023-02-01T14:40:27;4.00;99.90
65146;DHT22;51730;56.950;24.126;2023-02-01T14:42:55;3.90;99.90
65146;DHT22;51730;56.950;24.126;2023-02-01T15:00:55;3.80;99.90
65146;DHT22;51730;56.950;24.126;2023-02-01T15:06:38;3.80;99.90
65146;DHT22;51730;56.950;24.126;2023-02-01T15:12:02;3.70;99.90
65146;DHT22;51730;56.950;24.126;2023-02-01T15:14:45;3.70;99.90
65146;DHT22;51730;56.950;24.126;2023-02-01T15:17:21;3.70;99.90
65146;DHT22;51730;56.950;24.126;2023-02-01T15:19:56;3.60;99.90
65146;DHT22;51730;56.950;24.126;2023-02-01T15:22:24;3.60;99.90
65146;DHT22;51730;56.950;24.126;2023-02-01T15:24:56;3.50;99.90
65146;DHT22;51730;56.950;24.126;2023-02-01T15:27:24;3.30;99.90
65146;DHT22;51730;56.950;24.126;2023-02-01T15:29:51;3.40;99.90
65146;DHT22;51730;56.950;24.126;2023-02-01T15:32:32;3.40;99.90
65146;DHT22;51730;56.950;24.126;2023-02-01T15:35:00;3.40;99.90
65146;DHT22;51730;56.950;24.126;2023-02-01T15:37:28;3.40;99.90
65146;DHT22;51730;56.950;24.126;2023-02-01T15:42:55;3.40;99.90
65146;DHT22;51730;56.950;24.126;2023-02-01T15:45:27;3.40;99.90
65146;DHT22;51730;56.950;24.126;2023-02-01T15:47:56;3.30;99.90
65146;DHT22;51730;56.950;24.126;2023-02-01T15:50:23;3.20;99.90
65146;DHT22;51730;56.950;24.126;2023-02-01T15:52:53;3.20;99.90
65146;DHT22;51730;56.950;24.126;2023-02-01T15:55:37;3.20;99.90
65146;DHT22;51730;56.950;24.126;2023-02-01T15:58:17;3.20;99.90
65146;DHT22;51730;56.950;24.126;2023-02-01T16:00:56;3.10;99.90
65146;DHT22;51730;56.950;24.126;2023-02-01T16:03:37;3.10;99.90
65146;DHT22;51730;56.950;24.126;2023-02-01T16:06:08;3.10;99.90
65146;DHT22;51730;56.950;24.126;2023-02-01T16:08:36;3.00;99.90
65146;DHT22;51730;56.950;24.126;2023-02-01T16:13:36;3.00;99.90
65146;DHT22;51730;56.950;24.126;2023-02-01T16:16:03;3.10;99.90
65146;DHT22;51730;56.950;24.126;2023-02-01T16:18:34;3.20;99.90
65146;DHT22;51730;56.950;24.126;2023-02-01T16:21:02;3.10;99.90
65146;DHT22;51730;56.950;24.126;2023-02-01T16:23:29;3.20;99.90
65146;DHT22;51730;56.950;24.126;2023-02-01T16:25:58;3.00;99.90
65146;DHT22;51730;56.950;24.126;2023-02-01T16:28:25;3.10;99.90
65146;DHT22;51730;56.950;24.126;2023-02-01T16:30:52;3.00;99.90
65146;DHT22;51730;56.950;24.126;2023-02-01T16:33:21;2.90;99.90
65146;DHT22;51730;56.950;24.126;2023-02-01T16:35:50;3.00;99.90
65146;DHT22;51730;56.950;24.126;2023-02-01T16:38:19;3.00;99.90
65146;DHT22;51730;56.950;24.126;2023-02-01T16:40:49;3.00;99.90
65146;DHT22;51730;56.950;24.126;2023-02-01T16:43:17;3.00;99.90
65146;DHT22;51730;56.950;24.126;2023-02-01T16:45:45;2.90;99.90
65146;DHT22;51730;56.950;24.126;2023-02-01T16:48:25;2.90;99.90
65146;DHT22;51730;56.950;24.126;2023-02-01T16:50:54;2.90;99.90
65146;DHT22;51730;56.950;24.126;2023-02-01T16:53:23;3.00;99.90
65146;DHT22;51730;56.950;24.126;2023-02-01T16:55:51;3.00;99.90
65146;DHT22;51730;56.950;24.126;2023-02-01T16:58:20;2.90;99.90
65146;DHT22;51730;56.950;24.126;2023-02-01T17:00:47;3.00;99.90
65146;DHT22;51730;56.950;24.126;2023-02-01T17:03:15;2.90;99.90
65146;DHT22;51730;56.950;24.126;2023-02-01T17:05:54;2.90;99.90
65146;DHT22;51730;56.950;24.126;2023-02-01T17:08:30;3.00;99.90
65146;DHT22;51730;56.950;24.126;2023-02-01T17:11:01;2.90;99.90
65146;DHT22;51730;56.950;24.126;2023-02-01T17:13:28;3.00;99.90
65146;DHT22;51730;56.950;24.126;2023-02-01T17:16:04;3.00;99.90
65146;DHT22;51730;56.950;24.126;2023-02-01T17:18:34;3.10;99.90
65146;DHT22;51730;56.950;24.126;2023-02-01T17:21:02;3.10;99.90
65146;DHT22;51730;56.950;24.126;2023-02-01T17:23:31;3.10;99.90
65146;DHT22;51730;56.950;24.126;2023-02-01T17:25:58;3.00;99.90
65146;DHT22;51730;56.950;24.126;2023-02-01T17:28:25;2.90;99.90
65146;DHT22;51730;56.950;24.126;2023-02-01T17:30:52;2.90;99.90
65146;DHT22;51730;56.950;24.126;2023-02-01T17:33:25;2.90;99.90
65146;DHT22;51730;56.950;24.126;2023-02-01T17:35:54;2.80;99.90
65146;DHT22;51730;56.950;24.126;2023-02-01T17:38:21;2.90;99.90
65146;DHT22;51730;56.950;24.126;2023-02-01T17:40:49;2.90;99.90
65146;DHT22;51730;56.950;24.126;2023-02-01T17:43:20;3.00;99.90
65146;DHT22;51730;56.950;24.126;2023-02-01T17:48:18;3.00;99.90
65146;DHT22;51730;56.950;24.126;2023-02-01T17:50:47;3.00;99.90
65146;DHT22;51730;56.950;24.126;2023-02-01T17:53:16;3.00;99.90
65146;DHT22;51730;56.950;24.126;2023-02-01T17:55:46;3.00;99.90
65146;DHT22;51730;56.950;24.126;2023-02-01T17:58:14;2.90;99.90
65146;DHT22;51730;56.950;24.126;2023-02-01T18:00:42;3.00;99.90
65146;DHT22;51730;56.950;24.126;2023-02-01T18:03:20;2.90;99.90
65146;DHT22;51730;56.950;24.126;2023-02-01T18:05:53;2.90;99.90
65146;DHT22;51730;56.950;24.126;2023-02-01T18:08:22;2.90;99.90
65146;DHT22;51730;56.950;24.126;2023-02-01T18:10:51;3.00;99.90
65146;DHT22;51730;56.950;24.126;2023-02-01T18:13:18;2.90;99.90
65146;DHT22;51730;56.950;24.126;2023-02-01T18:15:44;3.00;99.90
65146;DHT22;51730;56.950;24.126;2023-02-01T18:18:11;3.00;99.90
65146;DHT22;51730;56.950;24.126;2023-02-01T18:20:43;3.00;99.90
65146;DHT22;51730;56.950;24.126;2023-02-01T18:23:15;3.00;99.90
65146;DHT22;51730;56.950;24.126;2023-02-01T18:25:44;3.00;99.90
65146;DHT22;51730;56.950;24.126;2023-02-01T18:28:13;2.90;99.90
65146;DHT22;51730;56.950;24.126;2023-02-01T18:30:43;2.90;99.90